Time;durP1;ratioP1;P1;durP2;ratioP2;P2;SDS_P1;SDS_P2;PMS_P1;PMS_P2;Temp;Humidity;BMP_temperature;BMP_pressure;BME280_temperature;BME280_humidity;BME280_pressure;Samples;Min_cycle;Max_cycle;Signal;HPM_P1;HPM_P2
2023/03/18 06:37:11;;;;;;;3.93;2.30;;;;;;;;;;5112617;27;21127;-78
2023/03/18 06:44:30;;;;;;;7.83;2.40;;;6.60;99.90;;;;;;5134046;27;20621;-78
2023/03/18 06:51:00;;;;;;;2.83;1.93;;;6.50;99.90;;;;;;5133846;27;20610;-79
2023/03/18 06:55:57;;;;;;;3.97;2.50;;;6.80;99.90;;;;;;5073434;28;20622;-79
2023/03/18 07:00:34;;;;;;;2.33;2.00;;;6.90;99.90;;;;;;5114625;27;20621;-79
2023/03/18 07:05:08;;;;;;;3.50;2.67;;;7.20;99.90;;;;;;5113804;27;20537;-78
2023/03/18 07:07:38;;;;;;;3.03;2.37;;;;;;;;;;5114078;28;20196;-79
2023/03/18 07:10:52;;;;;;;5.70;2.30;;;7.20;99.90;;;;;;5139096;27;20289;-77
2023/03/18 07:14:37;;;;;;;3.53;1.90;;;7.20;99.90;;;;;;5180332;27;20369;-79
2023/03/18 07:18:18;;;;;;;2.90;2.50;;;7.30;99.90;;;;;;5137200;27;20283;-79
2023/03/18 07:20:44;;;;;;;3.93;2.47;;;7.40;99.90;;;;;;5137353;28;20613;-80
2023/03/18 07:23:10;;;;;;;3.33;2.17;;;7.50;99.90;;;;;;5136391;27;20538;-79
2023/03/18 07:25:36;;;;;;;7.47;3.03;;;7.60;99.90;;;;;;5135821;28;20233;-80
2023/03/18 07:28:02;;;;;;;8.83;3.40;;;7.80;99.90;;;;;;5133688;28;20205;-80
2023/03/18 07:30:27;;;;;;;6.03;3.93;;;8.00;99.90;;;;;;5133903;27;20674;-76
2023/03/18 07:32:54;;;;;;;8.37;4.43;;;8.30;99.90;;;;;;5131682;27;20218;-76
2023/03/18 07:35:20;;;;;;;6.97;4.30;;;8.60;99.90;;;;;;5131056;28;20278;-77
2023/03/18 07:37:46;;;;;;;4.67;3.03;;;8.80;99.90;;;;;;5130412;28;20208;-77
2023/03/18 07:40:12;;;;;;;3.73;2.47;;;9.20;99.90;;;;;;5130413;28;20193;-77
2023/03/18 07:42:38;;;;;;;4.00;2.13;;;9.70;99.90;;;;;;5131806;27;20168;-77
2023/03/18 07:45:05;;;;;;;5.77;2.27;;;10.20;99.90;;;;;;5131737;27;20189;-76
2023/03/18 07:47:31;;;;;;;5.90;2.37;;;10.60;99.90;;;;;;5131477;27;20171;-77
2023/03/18 07:49:56;;;;;;;5.37;2.63;;;10.90;99.90;;;;;;5131491;27;20618;-77
2023/03/18 07:52:22;;;;;;;3.90;2.20;;;11.10;99.90;;;;;;5131562;27;20178;-77
2023/03/18 07:54:48;;;;;;;3.87;1.97;;;11.30;99.90;;;;;;5131568;27;20175;-76
2023/03/18 07:57:13;;;;;;;3.07;1.93;;;11.50;99.90;;;;;;5131196;27;20190;-76
2023/03/18 07:59:39;;;;;;;3.67;1.90;;;11.60;99.90;;;;;;5131217;27;20672;-77
2023/03/18 08:02:06;;;;;;;5.67;2.30;;;11.90;99.90;;;;;;5132669;27;20167;-76
2023/03/18 08:04:32;;;;;;;6.00;2.97;;;12.40;99.90;;;;;;5131864;27;20163;-77
2023/03/18 08:06:59;;;;;;;3.80;2.43;;;12.60;99.90;;;;;;5132725;27;20588;-76
2023/03/18 08:09:26;;;;;;;4.97;2.17;;;12.50;99.90;;;;;;5131661;27;20529;-77
2023/03/18 08:11:52;;;;;;;3.03;2.00;;;12.30;99.90;;;;;;5132305;28;20191;-79
2023/03/18 08:14:18;;;;;;;5.73;1.70;;;12.20;99.90;;;;;;5135182;27;20167;-80
2023/03/18 08:16:44;;;;;;;3.40;1.80;;;12.40;99.90;;;;;;5137035;27;20203;-79
2023/03/18 08:19:09;;;;;;;3.37;1.93;;;12.30;99.90;;;;;;5133179;28;20181;-78
2023/03/18 08:21:35;;;;;;;5.37;1.60;;;12.50;99.90;;;;;;5131167;27;20251;-78
2023/03/18 08:24:02;;;;;;;2.13;1.63;;;12.60;99.60;;;;;;5130707;27;20247;-76
2023/03/18 08:26:27;;;;;;;4.60;1.70;;;12.80;98.10;;;;;;5130648;27;20174;-76
2023/03/18 08:28:53;;;;;;;3.70;1.77;;;13.10;97.60;;;;;;5120135;28;20262;-76
2023/03/18 08:31:19;;;;;;;5.10;2.10;;;13.20;96.80;;;;;;5116908;28;20191;-76
2023/03/18 08:33:46;;;;;;;14.17;3.80;;;13.70;97.10;;;;;;5116690;28;20225;-77
2023/03/18 08:36:12;;;;;;;7.97;4.87;;;14.20;95.30;;;;;;5115587;28;20673;-77
2023/03/18 08:38:38;;;;;;;8.00;4.30;;;14.00;94.30;;;;;;5116872;28;20212;-76
2023/03/18 08:41:05;;;;;;;8.27;2.47;;;14.20;94.80;;;;;;5115041;28;20195;-77
2023/03/18 08:43:31;;;;;;;6.70;3.53;;;14.70;92.50;;;;;;5115290;28;20307;-78
2023/03/18 08:45:57;;;;;;;10.07;7.70;;;15.20;92.30;;;;;;5117185;28;20205;-77
2023/03/18 08:48:24;;;;;;;4.60;2.50;;;15.30;91.90;;;;;;5116821;28;20704;-77
2023/03/18 08:50:51;;;;;;;3.43;2.37;;;15.60;91.80;;;;;;5117683;28;20196;-77
2023/03/18 08:53:17;;;;;;;5.30;2.87;;;16.10;91.80;;;;;;5117802;28;20166;-77
2023/03/18 08:55:43;;;;;;;2.83;1.90;;;16.60;89.30;;;;;;5116769;28;20173;-77
2023/03/18 08:58:09;;;;;;;5.53;2.37;;;16.70;86.40;;;;;;5115136;28;20204;-77
2023/03/18 09:00:37;;;;;;;4.60;2.03;;;17.00;85.70;;;;;;5116043;28;20190;-76
2023/03/18 09:03:03;;;;;;;3.93;2.77;;;17.40;82.00;;;;;;5116170;28;20535;-77
2023/03/18 09:05:29;;;;;;;2.00;1.50;;;17.60;79.90;;;;;;5116602;28;20183;-77
2023/03/18 09:07:57;;;;;;;3.20;1.67;;;17.70;72.30;;;;;;5116422;28;20225;-77
2023/03/18 09:10:24;;;;;;;3.07;1.30;;;17.70;76.00;;;;;;5115717;28;20249;-78
2023/03/18 09:12:50;;;;;;;3.07;1.63;;;18.20;71.50;;;;;;5115082;28;20279;-78
2023/03/18 09:15:19;;;;;;;5.33;3.93;;;18.50;73.30;;;;;;5115441;28;20182;-77
2023/03/18 09:17:45;;;;;;;6.20;3.47;;;18.40;72.30;;;;;;5116030;28;20235;-77
2023/03/18 09:20:13;;;;;;;4.43;2.03;;;18.40;71.60;;;;;;5115187;28;20225;-77
2023/03/18 09:22:40;;;;;;;4.10;1.63;;;18.60;71.10;;;;;;5115900;28;20224;-77
2023/03/18 09:25:07;;;;;;;3.07;1.33;;;18.60;65.10;;;;;;5115270;28;20177;-78
2023/03/18 09:27:34;;;;;;;2.07;1.30;;;18.60;70.20;;;;;;5116197;28;20326;-77
2023/03/18 09:30:00;;;;;;;2.73;1.50;;;18.80;71.70;;;;;;5115489;28;20195;-77
2023/03/18 09:32:26;;;;;;;3.13;1.67;;;19.00;66.40;;;;;;5118597;28;20258;-76
2023/03/18 09:34:53;;;;;;;4.80;1.37;;;19.20;66.30;;;;;;5117479;28;20176;-77
2023/03/18 09:37:19;;;;;;;5.50;1.53;;;19.50;66.10;;;;;;5116380;28;20188;-77
2023/03/18 09:39:47;;;;;;;8.00;1.80;;;19.30;64.80;;;;;;5117574;28;20183;-77
2023/03/18 09:42:44;;;;;;;1.87;1.20;;;18.90;69.00;;;;;;5117449;28;20593;-77
2023/03/18 09:45:23;;;;;;;5.80;1.93;;;18.50;66.40;;;;;;5116220;28;20184;-76
2023/03/18 09:47:52;;;;;;;3.57;1.70;;;18.50;70.50;;;;;;5116977;28;20168;-76
2023/03/18 09:50:38;;;;;;;6.70;1.57;;;18.30;72.80;;;;;;5116677;28;20222;-78
2023/03/18 09:53:22;;;;;;;3.70;1.93;;;18.50;72.40;;;;;;5116476;28;20167;-77
2023/03/18 09:55:56;;;;;;;2.77;1.60;;;18.80;73.50;;;;;;5115607;28;20159;-77
2023/03/18 09:58:49;;;;;;;2.77;1.50;;;18.90;68.40;;;;;;5115765;28;20160;-76
2023/03/18 10:01:17;;;;;;;4.33;1.73;;;18.80;66.00;;;;;;5103829;28;20200;-75
2023/03/18 10:03:49;;;;;;;2.93;1.73;;;18.50;73.40;;;;;;5114783;28;20167;-77
2023/03/18 10:06:20;;;;;;;3.77;1.47;;;18.50;69.60;;;;;;5115085;28;20289;-76
2023/03/18 10:08:57;;;;;;;3.63;1.70;;;18.30;70.60;;;;;;5115505;28;20168;-79
2023/03/18 10:11:39;;;;;;;2.23;1.40;;;18.60;69.70;;;;;;5115283;28;20207;-76
2023/03/18 10:14:38;;;;;;;4.30;1.50;;;18.90;64.60;;;;;;5114099;28;20177;-77
2023/03/18 10:17:36;;;;;;;3.47;1.43;;;18.90;67.00;;;;;;5102711;28;20215;-77
2023/03/18 10:20:11;;;;;;;3.67;1.77;;;18.70;66.60;;;;;;5114989;28;20657;-77
2023/03/18 10:22:53;;;;;;;3.93;1.90;;;18.90;66.60;;;;;;5114449;28;20514;-77
2023/03/18 10:25:22;;;;;;;3.07;1.50;;;19.50;67.20;;;;;;5114776;28;20204;-77
2023/03/18 10:27:59;;;;;;;3.00;1.63;;;19.30;65.60;;;;;;5115389;28;20172;-76
2023/03/18 10:30:53;;;;;;;1.73;1.20;;;19.30;66.40;;;;;;5114395;28;20188;-77
2023/03/18 10:33:34;;;;;;;5.67;1.70;;;19.50;66.70;;;;;;5114434;28;20160;-75
2023/03/18 10:36:05;;;;;;;3.53;1.20;;;19.40;63.70;;;;;;5114745;28;20182;-77
2023/03/18 10:38:35;;;;;;;2.80;1.60;;;19.60;67.00;;;;;;5116192;28;20182;-79
2023/03/18 10:41:09;;;;;;;3.00;1.40;;;19.70;66.40;;;;;;5118928;28;20215;-78
2023/03/18 10:43:35;;;;;;;44.80;39.97;;;19.90;62.90;;;;;;5114668;28;20160;-76
2023/03/18 10:46:04;;;;;;;32.57;27.50;;;20.10;60.80;;;;;;5117580;28;20289;-74
2023/03/18 10:48:32;;;;;;;25.60;19.80;;;19.90;63.20;;;;;;5121852;28;20213;-75
2023/03/18 10:51:18;;;;;;;4.87;1.70;;;19.90;64.80;;;;;;5122444;28;20189;-75
2023/03/18 10:54:08;;;;;;;3.80;1.83;;;19.90;60.00;;;;;;5114037;28;20174;-77
2023/03/18 10:56:34;;;;;;;5.00;2.37;;;19.80;64.20;;;;;;5113071;28;20211;-76
2023/03/18 10:59:00;;;;;;;3.87;1.40;;;20.20;66.70;;;;;;5113865;28;20225;-76
2023/03/18 11:01:27;;;;;;;4.77;1.93;;;20.40;61.80;;;;;;5113648;28;20194;-75
2023/03/18 11:04:05;;;;;;;2.07;1.40;;;20.50;59.30;;;;;;5113531;28;20167;-75
2023/03/18 11:06:43;;;;;;;2.43;1.40;;;20.50;59.30;;;;;;5112981;28;20198;-76
2023/03/18 11:09:14;;;;;;;2.13;1.40;;;20.10;60.80;;;;;;5113776;28;20162;-77
2023/03/18 11:11:42;;;;;;;5.23;1.53;;;20.20;63.10;;;;;;5113804;28;20217;-76
2023/03/18 11:14:15;;;;;;;2.47;1.63;;;20.10;59.40;;;;;;5113650;28;20649;-74
2023/03/18 11:16:55;;;;;;;437.37;356.97;;;20.30;61.00;;;;;;5113534;28;20207;-77
2023/03/18 11:19:59;;;;;;;54.03;41.00;;;20.30;60.90;;;;;;5114037;28;20667;-77
2023/03/18 11:22:26;;;;;;;1046.73;794.63;;;20.40;60.00;;;;;;5035135;28;20264;-77
2023/03/18 11:25:11;;;;;;;22.70;18.53;;;20.40;63.30;;;;;;5098526;28;20724;-77
2023/03/18 11:27:44;;;;;;;35.60;30.87;;;20.60;59.80;;;;;;5113053;28;20636;-75
2023/03/18 11:30:25;;;;;;;3.40;2.57;;;20.70;60.10;;;;;;5114565;28;20219;-77
2023/03/18 11:32:57;;;;;;;5.63;2.87;;;20.80;59.20;;;;;;5116186;28;20167;-78
2023/03/18 11:35:36;;;;;;;27.13;19.40;;;20.80;58.40;;;;;;5116408;28;20152;-77
2023/03/18 11:38:04;;;;;;;30.00;24.97;;;21.00;58.20;;;;;;5115344;28;20349;-77
2023/03/18 11:40:30;;;;;;;21.57;19.43;;;21.40;60.30;;;;;;5116381;28;20267;-77
2023/03/18 11:43:03;;;;;;;24.77;22.23;;;21.60;57.60;;;;;;5116175;28;20169;-78
2023/03/18 11:46:03;;;;;;;5.03;4.03;;;21.20;57.10;;;;;;5114444;28;20186;-77
2023/03/18 11:48:35;;;;;;;10.23;5.90;;;21.50;62.30;;;;;;5081529;28;20189;-77
2023/03/18 11:51:26;;;;;;;4.60;2.40;;;21.80;59.30;;;;;;5114691;28;20189;-76
2023/03/18 11:54:20;;;;;;;4.30;2.17;;;22.40;58.80;;;;;;5114378;28;20157;-78
2023/03/18 11:57:09;;;;;;;4.63;2.73;;;22.70;57.50;;;;;;5116463;28;20237;-78
2023/03/18 11:59:41;;;;;;;4.07;1.77;;;23.10;55.20;;;;;;5117286;28;20180;-77
2023/03/18 12:02:18;;;;;;;6.53;3.63;;;23.00;54.30;;;;;;5114795;28;20215;-77
2023/03/18 12:04:44;;;;;;;5.77;3.17;;;22.80;52.30;;;;;;5118149;28;20218;-77
2023/03/18 12:07:23;;;;;;;3.53;1.43;;;22.50;54.70;;;;;;5119322;28;20545;-77
2023/03/18 12:09:56;;;;;;;9.10;3.60;;;22.60;54.30;;;;;;5121732;28;20182;-78
2023/03/18 12:12:28;;;;;;;5.87;2.63;;;22.70;53.50;;;;;;5119199;28;20184;-78
2023/03/18 12:15:32;;;;;;;2.57;1.27;;;23.30;56.60;;;;;;5118315;28;20174;-77
2023/03/18 12:18:22;;;;;;;6.37;1.90;;;23.70;50.40;;;;;;5116349;28;20229;-79
2023/03/18 12:20:52;;;;;;;4.77;2.10;;;24.10;52.10;;;;;;5117646;28;20213;-77
2023/03/18 12:23:55;;;;;;;7.17;3.40;;;23.90;52.80;;;;;;5117433;28;20178;-77
2023/03/18 12:26:36;;;;;;;2.37;1.60;;;24.20;52.50;;;;;;5119183;28;20654;-78
2023/03/18 12:29:16;;;;;;;4.20;1.73;;;24.50;51.00;;;;;;5121448;28;20163;-77
2023/03/18 12:32:02;;;;;;;60.63;34.73;;;24.50;51.30;;;;;;5120052;28;20197;-77
2023/03/18 12:34:36;;;;;;;7.53;4.00;;;24.40;50.20;;;;;;5121588;28;20170;-78
2023/03/18 12:37:07;;;;;;;48.53;42.97;;;24.40;52.40;;;;;;5119564;28;20513;-78
2023/03/18 12:39:57;;;;;;;24.77;6.97;;;24.60;51.40;;;;;;5121331;28;20161;-78
2023/03/18 12:42:25;;;;;;;74.67;47.30;;;24.90;52.30;;;;;;5120909;28;20647;-79
2023/03/18 12:45:06;;;;;;;69.43;39.43;;;24.80;50.70;;;;;;5122425;27;20550;-78
2023/03/18 12:47:46;;;;;;;18.43;4.30;;;25.10;50.30;;;;;;5122690;28;20163;-78
2023/03/18 12:50:32;;;;;;;51.17;23.87;;;25.60;50.60;;;;;;5121608;28;20190;-78
2023/03/18 12:53:25;;;;;;;154.80;79.43;;;25.70;48.50;;;;;;5120827;28;20162;-78
2023/03/18 12:55:56;;;;;;;237.83;114.77;;;25.20;48.00;;;;;;5119725;28;20156;-78
2023/03/18 12:58:27;;;;;;;123.20;48.40;;;25.00;49.20;;;;;;5123843;27;20188;-78
2023/03/18 13:01:16;;;;;;;9.47;3.17;;;25.00;49.90;;;;;;5125304;28;20191;-78
2023/03/18 13:04:01;;;;;;;16.53;2.93;;;25.20;48.30;;;;;;5122756;28;20600;-78
2023/03/18 13:06:40;;;;;;;871.23;539.30;;;26.00;48.50;;;;;;5122352;28;20171;-80
2023/03/18 13:09:22;;;;;;;12.70;6.53;;;26.20;47.30;;;;;;5123112;28;20215;-80
2023/03/18 13:11:57;;;;;;;14.80;6.60;;;26.30;46.70;;;;;;5121268;28;20210;-81
2023/03/18 13:14:30;;;;;;;34.83;19.10;;;25.80;47.00;;;;;;5123129;28;20163;-80
2023/03/18 13:16:57;;;;;;;70.27;31.00;;;25.50;48.60;;;;;;5122861;28;20195;-80
2023/03/18 13:19:24;;;;;;;9.93;3.93;;;25.70;48.10;;;;;;5123810;28;20175;-80
2023/03/18 13:22:47;;;;;;;6.60;3.10;;;25.80;48.20;;;;;;5121093;28;20540;-78
2023/03/18 13:25:32;;;;;;;212.37;96.67;;;25.70;47.10;;;;;;5119475;28;20168;-78
2023/03/18 13:28:38;;;;;;;15.57;8.03;;;26.10;46.40;;;;;;5120366;28;20239;-78
2023/03/18 13:31:20;;;;;;;10.50;5.20;;;25.60;48.10;;;;;;5099218;28;20283;-77
2023/03/18 13:34:14;;;;;;;6.63;3.70;;;26.00;47.60;;;;;;5120820;28;20182;-78
2023/03/18 13:36:46;;;;;;;155.40;89.77;;;25.60;45.50;;;;;;5101391;28;20724;-78
2023/03/18 13:39:17;;;;;;;8.63;4.67;;;24.90;47.20;;;;;;5121154;28;20164;-77
2023/03/18 13:42:09;;;;;;;96.57;54.50;;;25.30;47.60;;;;;;5118524;28;20243;-77
2023/03/18 13:44:37;;;;;;;69.43;47.57;;;25.50;45.50;;;;;;5116452;27;20211;-77
2023/03/18 13:47:08;;;;;;;706.83;220.03;;;26.10;46.70;;;;;;5120061;28;20254;-78
2023/03/18 13:49:37;;;;;;;90.30;27.83;;;26.50;45.20;;;;;;5120196;28;20503;-78
2023/03/18 13:52:04;;;;;;;245.13;76.10;;;26.30;44.90;;;;;;5120349;28;20208;-77
2023/03/18 13:54:36;;;;;;;74.27;25.77;;;26.00;45.10;;;;;;5119660;28;20256;-77
2023/03/18 13:57:25;;;;;;;64.57;24.87;;;25.70;45.30;;;;;;5118114;28;20208;-78
2023/03/18 14:00:30;;;;;;;24.50;11.63;;;25.90;45.30;;;;;;5117398;28;20746;-77
2023/03/18 14:03:28;;;;;;;8.20;3.57;;;25.60;46.30;;;;;;5119417;28;20501;-77
2023/03/18 14:06:03;;;;;;;7.00;3.07;;;25.60;45.10;;;;;;5119674;28;20178;-77
2023/03/18 14:08:37;;;;;;;154.80;80.57;;;25.30;45.40;;;;;;5118800;28;20563;-78
2023/03/18 14:11:19;;;;;;;5.87;3.80;;;24.90;45.90;;;;;;5117022;28;20280;-78
2023/03/18 14:13:51;;;;;;;223.67;122.70;;;23.90;47.80;;;;;;5117572;28;20202;-78
2023/03/18 14:16:22;;;;;;;20.20;9.07;;;23.20;48.50;;;;;;5118472;28;20185;-77
2023/03/18 14:19:16;;;;;;;22.60;10.63;;;23.10;49.20;;;;;;5117841;28;20156;-78
2023/03/18 14:22:06;;;;;;;4.43;2.50;;;22.90;49.00;;;;;;5117064;28;20192;-77
2023/03/18 14:24:32;;;;;;;6.63;3.17;;;22.50;50.20;;;;;;5117080;28;20163;-77
2023/03/18 14:27:03;;;;;;;117.87;57.47;;;22.50;49.90;;;;;;5116458;28;20191;-77
2023/03/18 14:29:41;;;;;;;30.63;15.60;;;22.10;49.70;;;;;;5115809;28;20176;-77
2023/03/18 14:32:21;;;;;;;22.13;12.50;;;21.90;50.30;;;;;;5115613;28;20233;-77
2023/03/18 14:35:12;;;;;;;7.47;4.50;;;21.90;51.10;;;;;;5114536;28;20187;-77
2023/03/18 14:37:59;;;;;;;17.77;7.87;;;21.80;51.70;;;;;;5114373;28;20203;-77
2023/03/18 14:40:26;;;;;;;158.60;95.60;;;21.60;51.00;;;;;;5115567;28;20184;-77
2023/03/18 14:43:00;;;;;;;10.13;5.93;;;21.30;51.50;;;;;;5114893;28;20249;-77
2023/03/18 14:45:35;;;;;;;4.30;3.00;;;20.70;53.40;;;;;;5115358;28;20164;-77
2023/03/18 14:48:22;;;;;;;142.43;78.23;;;20.30;54.10;;;;;;5115070;28;20175;-77
2023/03/18 14:50:53;;;;;;;86.30;46.73;;;19.80;53.10;;;;;;5114677;28;20279;-77
2023/03/18 14:53:43;;;;;;;235.67;114.37;;;19.50;54.50;;;;;;5114529;28;20241;-77
2023/03/18 14:56:24;;;;;;;7.33;4.13;;;18.90;55.30;;;;;;5114393;28;20225;-77
2023/03/18 14:58:55;;;;;;;276.37;104.47;;;18.60;55.90;;;;;;5114148;28;20164;-77
2023/03/18 15:01:34;;;;;;;1178.30;433.30;;;18.50;56.90;;;;;;5114085;28;20277;-77
2023/03/18 15:04:01;;;;;;;1276.80;536.87;;;18.40;56.10;;;;;;5114024;28;20148;-77
2023/03/18 15:06:28;;;;;;;20.87;8.57;;;18.00;56.20;;;;;;5114201;28;20168;-77
2023/03/18 15:09:03;;;;;;;861.00;264.93;;;17.90;58.20;;;;;;5114359;28;20205;-77
2023/03/18 15:11:34;;;;;;;77.87;21.63;;;17.70;58.40;;;;;;5112789;28;20666;-77
2023/03/18 15:14:00;;;;;;;726.77;207.60;;;17.70;59.10;;;;;;5113888;28;20160;-76
2023/03/18 15:16:26;;;;;;;10.20;4.13;;;17.70;59.10;;;;;;5113785;28;20186;-78
2023/03/18 15:18:54;;;;;;;299.10;106.00;;;17.50;58.30;;;;;;5113976;28;20257;-76
2023/03/18 15:21:33;;;;;;;75.67;26.40;;;17.40;59.20;;;;;;5113881;28;20270;-77
2023/03/18 15:24:03;;;;;;;7.47;3.27;;;17.10;58.60;;;;;;5112481;28;20167;-77
2023/03/18 15:26:33;;;;;;;256.17;97.83;;;17.00;59.80;;;;;;5113932;28;20171;-77
2023/03/18 15:29:03;;;;;;;13.37;6.57;;;17.00;59.70;;;;;;5113927;28;20169;-77
2023/03/18 15:31:41;;;;;;;7.10;3.67;;;17.00;60.90;;;;;;5112544;28;20224;-77
2023/03/18 15:34:20;;;;;;;4.87;2.97;;;17.00;62.90;;;;;;5114206;28;20628;-77
2023/03/18 15:36:59;;;;;;;14.80;8.70;;;16.90;63.80;;;;;;5114677;28;20601;-77
2023/03/18 15:39:36;;;;;;;343.03;148.67;;;16.80;63.70;;;;;;5118875;28;20165;-77
2023/03/18 15:42:16;;;;;;;38.03;15.77;;;16.80;64.20;;;;;;5121142;28;20208;-77
2023/03/18 15:44:43;;;;;;;9.20;4.50;;;16.70;65.50;;;;;;5119940;28;20173;-77
2023/03/18 15:47:15;;;;;;;9.27;4.50;;;16.70;65.80;;;;;;5118171;28;20165;-77
2023/03/18 15:50:19;;;;;;;4.57;3.13;;;16.50;65.60;;;;;;5118026;28;20694;-77
2023/03/18 15:52:46;;;;;;;5.30;2.37;;;16.30;64.60;;;;;;5118033;28;20159;-77
2023/03/18 15:55:28;;;;;;;5.60;2.57;;;16.30;65.80;;;;;;5117968;28;20178;-77
2023/03/18 15:57:54;;;;;;;11.40;5.07;;;16.40;64.90;;;;;;5118903;28;20785;-78
2023/03/18 16:00:21;;;;;;;10.27;2.43;;;16.30;64.90;;;;;;5118853;28;20195;-76
2023/03/18 16:02:47;;;;;;;59.27;26.20;;;16.30;65.30;;;;;;5120270;27;20215;-77
2023/03/18 16:05:19;;;;;;;33.27;16.57;;;16.30;65.80;;;;;;5117804;28;20173;-77
2023/03/18 16:07:45;;;;;;;13.57;7.17;;;16.30;65.80;;;;;;5117886;28;20173;-77
2023/03/18 16:10:16;;;;;;;13.43;4.00;;;16.30;65.80;;;;;;5117257;28;20209;-77
2023/03/18 16:12:41;;;;;;;9.17;4.80;;;16.20;65.70;;;;;;5117676;28;20195;-77
2023/03/18 16:15:15;;;;;;;9.40;3.27;;;16.30;67.00;;;;;;5116187;28;20208;-77
2023/03/18 16:17:41;;;;;;;38.17;15.67;;;16.20;66.40;;;;;;5117299;28;20207;-77
2023/03/18 16:20:21;;;;;;;7.57;4.40;;;16.20;65.20;;;;;;5116407;28;20287;-77
2023/03/18 16:22:48;;;;;;;63.50;26.93;;;16.00;65.10;;;;;;5117077;28;20164;-77
2023/03/18 16:25:14;;;;;;;129.53;50.73;;;15.90;65.80;;;;;;5117122;28;20571;-77
2023/03/18 16:27:42;;;;;;;11.83;4.50;;;15.80;65.10;;;;;;5117165;28;20643;-77
2023/03/18 16:30:26;;;;;;;6.57;3.57;;;15.70;65.90;;;;;;5116145;28;20189;-77
2023/03/18 16:32:53;;;;;;;16.30;5.33;;;15.60;67.20;;;;;;5117824;28;20573;-78
2023/03/18 16:35:31;;;;;;;12.07;5.53;;;15.50;66.50;;;;;;5119083;28;20256;-78
2023/03/18 16:37:57;;;;;;;218.77;85.67;;;15.40;65.70;;;;;;5119685;28;20309;-78
2023/03/18 16:40:27;;;;;;;44.50;17.53;;;15.40;66.90;;;;;;5117423;28;20189;-76
2023/03/18 16:42:53;;;;;;;25.23;9.03;;;15.30;66.90;;;;;;5116589;28;20182;-77
2023/03/18 16:45:32;;;;;;;13.80;5.57;;;15.20;67.20;;;;;;5121803;28;20169;-78
2023/03/18 16:48:01;;;;;;;86.23;30.37;;;15.20;68.00;;;;;;5123138;28;20291;-78
2023/03/18 16:50:30;;;;;;;1356.53;619.33;;;15.10;69.50;;;;;;5115965;27;20227;-78
2023/03/18 16:52:56;;;;;;;152.80;59.27;;;15.00;69.30;;;;;;5115490;28;20197;-78
2023/03/18 16:55:22;;;;;;;33.00;13.80;;;14.90;69.00;;;;;;5117603;28;20528;-78
2023/03/18 16:58:01;;;;;;;70.17;26.83;;;15.00;71.20;;;;;;5116064;28;20205;-78
2023/03/18 17:00:30;;;;;;;52.30;20.87;;;14.90;70.30;;;;;;5117099;27;20193;-78
